sensor_id;sensor_type;location;lat;lon;timestamp;temperature;humidity
65858;SHT31;53776;47.242;18.674;2022-09-09T00:00:40;25.84;59.41
65858;SHT31;53776;47.242;18.674;2022-09-09T00:03:19;25.80;59.35
65858;SHT31;53776;47.242;18.674;2022-09-09T00:11:28;25.75;59.49
65858;SHT31;53776;47.242;18.674;2022-09-09T00:13:56;25.75;59.44
65858;SHT31;53776;47.242;18.674;2022-09-09T00:16:28;25.73;59.45
65858;SHT31;53776;47.242;18.674;2022-09-09T00:22:15;25.66;59.53
65858;SHT31;53776;47.242;18.674;2022-09-09T00:24:56;25.67;59.47
65858;SHT31;53776;47.242;18.674;2022-09-09T00:32:39;25.59;59.62
65858;SHT31;53776;47.242;18.674;2022-09-09T00:35:17;25.61;59.52
65858;SHT31;53776;47.242;18.674;2022-09-09T00:37:45;25.56;59.47
65858;SHT31;53776;47.242;18.674;2022-09-09T00:40:30;25.58;59.40
65858;SHT31;53776;47.242;18.674;2022-09-09T00:43:28;25.55;59.42
65858;SHT31;53776;47.242;18.674;2022-09-09T01:05:33;25.46;59.29
65858;SHT31;53776;47.242;18.674;2022-09-09T01:08:11;25.45;59.25
65858;SHT31;53776;47.242;18.674;2022-09-09T01:10:46;25.38;59.28
65858;SHT31;53776;47.242;18.674;2022-09-09T01:13:22;25.41;59.24
65858;SHT31;53776;47.242;18.674;2022-09-09T01:15:49;25.39;59.29
65858;SHT31;53776;47.242;18.674;2022-09-09T01:18:17;25.34;59.31
65858;SHT31;53776;47.242;18.674;2022-09-09T01:26:46;25.26;59.46
65858;SHT31;53776;47.242;18.674;2022-09-09T01:29:14;25.25;59.48
65858;SHT31;53776;47.242;18.674;2022-09-09T01:31:51;25.22;59.39
65858;SHT31;53776;47.242;18.674;2022-09-09T01:34:16;25.24;59.44
65858;SHT31;53776;47.242;18.674;2022-09-09T01:39:26;25.17;59.47
65858;SHT31;53776;47.242;18.674;2022-09-09T01:41:52;25.17;59.42
65858;SHT31;53776;47.242;18.674;2022-09-09T01:44:19;25.18;59.33
65858;SHT31;53776;47.242;18.674;2022-09-09T01:46:45;25.15;59.39
65858;SHT31;53776;47.242;18.674;2022-09-09T01:49:10;25.12;59.39
65858;SHT31;53776;47.242;18.674;2022-09-09T01:51:38;25.15;59.29
65858;SHT31;53776;47.242;18.674;2022-09-09T01:54:04;25.11;59.28
65858;SHT31;53776;47.242;18.674;2022-09-09T02:04:40;25.08;59.31
65858;SHT31;53776;47.242;18.674;2022-09-09T02:07:36;25.04;59.25
65858;SHT31;53776;47.242;18.674;2022-09-09T02:13:05;25.03;59.28
65858;SHT31;53776;47.242;18.674;2022-09-09T02:18:43;25.04;59.25
65858;SHT31;53776;47.242;18.674;2022-09-09T02:21:11;24.99;59.23
65858;SHT31;53776;47.242;18.674;2022-09-09T02:23:41;25.03;59.19
65858;SHT31;53776;47.242;18.674;2022-09-09T02:26:09;25.01;59.20
65858;SHT31;53776;47.242;18.674;2022-09-09T02:28:37;24.99;59.16
65858;SHT31;53776;47.242;18.674;2022-09-09T02:31:04;24.98;59.18
65858;SHT31;53776;47.242;18.674;2022-09-09T02:33:35;24.95;59.23
65858;SHT31;53776;47.242;18.674;2022-09-09T02:36:02;24.95;59.21
65858;SHT31;53776;47.242;18.674;2022-09-09T02:38:33;24.91;59.20
65858;SHT31;53776;47.242;18.674;2022-09-09T02:41:00;24.91;59.24
65858;SHT31;53776;47.242;18.674;2022-09-09T02:43:32;24.90;59.23
65858;SHT31;53776;47.242;18.674;2022-09-09T02:46:07;24.90;59.21
65858;SHT31;53776;47.242;18.674;2022-09-09T02:48:43;24.86;59.31
65858;SHT31;53776;47.242;18.674;2022-09-09T02:54:15;24.84;59.29
65858;SHT31;53776;47.242;18.674;2022-09-09T02:56:47;24.80;59.31
65858;SHT31;53776;47.242;18.674;2022-09-09T02:59:15;24.80;59.34
65858;SHT31;53776;47.242;18.674;2022-09-09T03:01:41;24.78;59.29
65858;SHT31;53776;47.242;18.674;2022-09-09T03:04:07;24.76;59.30
65858;SHT31;53776;47.242;18.674;2022-09-09T03:06:32;24.73;59.29
65858;SHT31;53776;47.242;18.674;2022-09-09T03:08:57;24.74;59.29
65858;SHT31;53776;47.242;18.674;2022-09-09T03:11:26;24.73;59.31
65858;SHT31;53776;47.242;18.674;2022-09-09T03:13:52;24.70;59.34
65858;SHT31;53776;47.242;18.674;2022-09-09T03:16:17;24.67;59.28
65858;SHT31;53776;47.242;18.674;2022-09-09T03:18:43;24.70;59.26
65858;SHT31;53776;47.242;18.674;2022-09-09T03:21:11;24.66;59.24
65858;SHT31;53776;47.242;18.674;2022-09-09T03:23:36;24.67;59.24
65858;SHT31;53776;47.242;18.674;2022-09-09T03:26:01;24.64;59.27
65858;SHT31;53776;47.242;18.674;2022-09-09T03:28:27;24.63;59.19
65858;SHT31;53776;47.242;18.674;2022-09-09T03:31:03;24.61;59.30
65858;SHT31;53776;47.242;18.674;2022-09-09T03:33:30;24.61;59.33
65858;SHT31;53776;47.242;18.674;2022-09-09T03:35:56;24.59;59.32
65858;SHT31;53776;47.242;18.674;2022-09-09T03:38:24;24.60;59.27
65858;SHT31;53776;47.242;18.674;2022-09-09T03:40:51;24.57;59.27
65858;SHT31;53776;47.242;18.674;2022-09-09T03:43:17;24.60;59.23
65858;SHT31;53776;47.242;18.674;2022-09-09T03:45:46;24.55;59.21
65858;SHT31;53776;47.242;18.674;2022-09-09T03:48:15;24.56;59.25
65858;SHT31;53776;47.242;18.674;2022-09-09T03:50:48;24.55;59.30
65858;SHT31;53776;47.242;18.674;2022-09-09T03:53:15;24.52;59.32
65858;SHT31;53776;47.242;18.674;2022-09-09T03:55:46;24.52;59.30
65858;SHT31;53776;47.242;18.674;2022-09-09T03:58:13;24.49;59.30
65858;SHT31;53776;47.242;18.674;2022-09-09T04:00:39;24.48;59.38
65858;SHT31;53776;47.242;18.674;2022-09-09T04:03:11;24.44;59.35
65858;SHT31;53776;47.242;18.674;2022-09-09T04:05:39;24.43;59.36
65858;SHT31;53776;47.242;18.674;2022-09-09T04:08:06;24.41;59.34
65858;SHT31;53776;47.242;18.674;2022-09-09T04:10:32;24.40;59.41
65858;SHT31;53776;47.242;18.674;2022-09-09T04:12:57;24.36;59.40
65858;SHT31;53776;47.242;18.674;2022-09-09T04:15:23;24.39;59.45
65858;SHT31;53776;47.242;18.674;2022-09-09T04:17:49;24.35;59.35
65858;SHT31;53776;47.242;18.674;2022-09-09T04:20:15;24.35;59.43
65858;SHT31;53776;47.242;18.674;2022-09-09T04:22:40;24.33;59.48
65858;SHT31;53776;47.242;18.674;2022-09-09T04:25:06;24.29;59.48
65858;SHT31;53776;47.242;18.674;2022-09-09T04:27:32;24.29;59.45
65858;SHT31;53776;47.242;18.674;2022-09-09T04:29:57;24.26;59.75
65858;SHT31;53776;47.242;18.674;2022-09-09T04:32:23;24.25;59.53
65858;SHT31;53776;47.242;18.674;2022-09-09T04:34:49;24.20;59.62
65858;SHT31;53776;47.242;18.674;2022-09-09T04:37:15;24.18;59.76
65858;SHT31;53776;47.242;18.674;2022-09-09T04:39:40;24.15;59.63
65858;SHT31;53776;47.242;18.674;2022-09-09T04:42:05;24.15;59.67
65858;SHT31;53776;47.242;18.674;2022-09-09T04:44:31;24.13;59.55
65858;SHT31;53776;47.242;18.674;2022-09-09T04:46:56;24.13;59.61
65858;SHT31;53776;47.242;18.674;2022-09-09T04:49:22;24.12;59.64
65858;SHT31;53776;47.242;18.674;2022-09-09T04:51:49;24.09;59.97
65858;SHT31;53776;47.242;18.674;2022-09-09T04:54:14;24.09;59.65
65858;SHT31;53776;47.242;18.674;2022-09-09T04:56:40;24.08;59.65
65858;SHT31;53776;47.242;18.674;2022-09-09T04:59:07;24.08;59.58
65858;SHT31;53776;47.242;18.674;2022-09-09T05:01:32;24.01;59.99
65858;SHT31;53776;47.242;18.674;2022-09-09T05:03:58;24.05;59.66
65858;SHT31;53776;47.242;18.674;2022-09-09T05:06:24;24.04;59.60
65858;SHT31;53776;47.242;18.674;2022-09-09T05:08:49;24.02;59.81
65858;SHT31;53776;47.242;18.674;2022-09-09T05:11:16;24.01;59.63
65858;SHT31;53776;47.242;18.674;2022-09-09T05:13:42;24.02;59.56
65858;SHT31;53776;47.242;18.674;2022-09-09T05:16:07;23.98;59.93
65858;SHT31;53776;47.242;18.674;2022-09-09T05:18:37;23.98;59.71
65858;SHT31;53776;47.242;18.674;2022-09-09T05:21:02;23.97;59.94
65858;SHT31;53776;47.242;18.674;2022-09-09T05:23:28;23.94;59.91
65858;SHT31;53776;47.242;18.674;2022-09-09T05:25:57;23.92;59.97
65858;SHT31;53776;47.242;18.674;2022-09-09T05:28:24;23.95;59.78
65858;SHT31;53776;47.242;18.674;2022-09-09T05:31:01;23.98;59.65
65858;SHT31;53776;47.242;18.674;2022-09-09T05:33:30;24.01;59.79
65858;SHT31;53776;47.242;18.674;2022-09-09T05:36:01;24.02;59.50
65858;SHT31;53776;47.242;18.674;2022-09-09T05:38:28;24.09;59.27
65858;SHT31;53776;47.242;18.674;2022-09-09T05:40:54;24.08;59.35
65858;SHT31;53776;47.242;18.674;2022-09-09T05:43:21;24.15;59.43
65858;SHT31;53776;47.242;18.674;2022-09-09T05:45:48;24.19;59.19
65858;SHT31;53776;47.242;18.674;2022-09-09T05:48:14;24.20;59.31
65858;SHT31;53776;47.242;18.674;2022-09-09T05:50:41;24.15;59.41
65858;SHT31;53776;47.242;18.674;2022-09-09T05:53:08;24.13;59.20
65858;SHT31;53776;47.242;18.674;2022-09-09T05:55:33;24.06;59.75
65858;SHT31;53776;47.242;18.674;2022-09-09T05:57:59;24.09;59.47
65858;SHT31;53776;47.242;18.674;2022-09-09T06:00:25;24.11;59.37
65858;SHT31;53776;47.242;18.674;2022-09-09T06:02:52;24.15;59.34
65858;SHT31;53776;47.242;18.674;2022-09-09T06:05:18;24.11;59.17
65858;SHT31;53776;47.242;18.674;2022-09-09T06:07:43;24.12;59.25
65858;SHT31;53776;47.242;18.674;2022-09-09T06:10:13;24.11;59.56
65858;SHT31;53776;47.242;18.674;2022-09-09T06:12:41;24.11;59.47
65858;SHT31;53776;47.242;18.674;2022-09-09T06:15:07;24.15;59.27
65858;SHT31;53776;47.242;18.674;2022-09-09T06:17:34;24.18;59.32
65858;SHT31;53776;47.242;18.674;2022-09-09T06:19:59;24.26;58.87
65858;SHT31;53776;47.242;18.674;2022-09-09T06:22:24;24.26;58.98
65858;SHT31;53776;47.242;18.674;2022-09-09T06:24:50;24.30;59.01
65858;SHT31;53776;47.242;18.674;2022-09-09T06:27:16;24.30;58.92
65858;SHT31;53776;47.242;18.674;2022-09-09T06:29:41;24.28;58.90
65858;SHT31;53776;47.242;18.674;2022-09-09T06:32:07;24.29;58.99
65858;SHT31;53776;47.242;18.674;2022-09-09T06:34:33;24.28;59.04
65858;SHT31;53776;47.242;18.674;2022-09-09T06:36:59;24.30;58.87
65858;SHT31;53776;47.242;18.674;2022-09-09T06:39:24;24.36;58.64
65858;SHT31;53776;47.242;18.674;2022-09-09T06:41:50;24.40;58.55
65858;SHT31;53776;47.242;18.674;2022-09-09T06:44:18;24.43;58.47
65858;SHT31;53776;47.242;18.674;2022-09-09T06:46:44;24.49;58.25
65858;SHT31;53776;47.242;18.674;2022-09-09T06:49:13;24.48;58.41
65858;SHT31;53776;47.242;18.674;2022-09-09T06:51:38;24.46;59.53
65858;SHT31;53776;47.242;18.674;2022-09-09T06:54:08;24.39;59.61
65858;SHT31;53776;47.242;18.674;2022-09-09T06:56:38;24.39;59.54
65858;SHT31;53776;47.242;18.674;2022-09-09T06:59:08;24.57;58.82
65858;SHT31;53776;47.242;18.674;2022-09-09T07:01:38;24.74;58.13
65858;SHT31;53776;47.242;18.674;2022-09-09T07:04:07;24.67;58.68
65858;SHT31;53776;47.242;18.674;2022-09-09T07:06:41;24.57;59.03
65858;SHT31;53776;47.242;18.674;2022-09-09T07:09:10;24.53;59.77
65858;SHT31;53776;47.242;18.674;2022-09-09T07:11:43;24.50;59.43
65858;SHT31;53776;47.242;18.674;2022-09-09T07:14:09;24.49;59.86
65858;SHT31;53776;47.242;18.674;2022-09-09T07:16:37;24.59;59.32
65858;SHT31;53776;47.242;18.674;2022-09-09T07:19:03;24.64;58.65
65858;SHT31;53776;47.242;18.674;2022-09-09T07:21:30;24.71;58.25
65858;SHT31;53776;47.242;18.674;2022-09-09T07:23:56;24.74;58.56
65858;SHT31;53776;47.242;18.674;2022-09-09T07:26:24;24.81;58.24
65858;SHT31;53776;47.242;18.674;2022-09-09T07:28:50;24.80;58.28
65858;SHT31;53776;47.242;18.674;2022-09-09T07:31:17;24.98;57.83
65858;SHT31;53776;47.242;18.674;2022-09-09T07:33:43;25.06;57.88
65858;SHT31;53776;47.242;18.674;2022-09-09T07:36:13;25.01;58.05
65858;SHT31;53776;47.242;18.674;2022-09-09T07:38:40;24.95;58.20
65858;SHT31;53776;47.242;18.674;2022-09-09T07:41:08;24.92;58.36
65858;SHT31;53776;47.242;18.674;2022-09-09T07:43:38;24.90;58.40
65858;SHT31;53776;47.242;18.674;2022-09-09T07:46:04;24.91;58.38
65858;SHT31;53776;47.242;18.674;2022-09-09T07:48:31;25.04;58.12
65858;SHT31;53776;47.242;18.674;2022-09-09T07:51:14;25.10;58.00
65858;SHT31;53776;47.242;18.674;2022-09-09T07:53:44;25.18;57.86
65858;SHT31;53776;47.242;18.674;2022-09-09T07:56:15;25.22;57.81
65858;SHT31;53776;47.242;18.674;2022-09-09T07:58:46;25.26;57.83
65858;SHT31;53776;47.242;18.674;2022-09-09T08:01:24;25.26;57.83
65858;SHT31;53776;47.242;18.674;2022-09-09T08:03:55;25.32;57.73
65858;SHT31;53776;47.242;18.674;2022-09-09T08:06:22;25.34;57.79
65858;SHT31;53776;47.242;18.674;2022-09-09T08:08:50;25.38;57.72
65858;SHT31;53776;47.242;18.674;2022-09-09T08:11:16;25.35;57.84
65858;SHT31;53776;47.242;18.674;2022-09-09T08:13:43;25.36;57.81
65858;SHT31;53776;47.242;18.674;2022-09-09T08:16:17;25.38;57.80
65858;SHT31;53776;47.242;18.674;2022-09-09T08:18:43;25.39;57.85
65858;SHT31;53776;47.242;18.674;2022-09-09T08:21:11;25.36;57.93
65858;SHT31;53776;47.242;18.674;2022-09-09T08:23:38;25.38;57.84
65858;SHT31;53776;47.242;18.674;2022-09-09T08:26:12;25.42;57.86
65858;SHT31;53776;47.242;18.674;2022-09-09T08:28:39;25.39;57.98
65858;SHT31;53776;47.242;18.674;2022-09-09T08:31:13;25.39;57.98
65858;SHT31;53776;47.242;18.674;2022-09-09T08:33:39;25.41;57.90
65858;SHT31;53776;47.242;18.674;2022-09-09T08:36:09;25.39;57.97
65858;SHT31;53776;47.242;18.674;2022-09-09T08:38:35;25.42;57.98
65858;SHT31;53776;47.242;18.674;2022-09-09T08:52:51;25.48;57.80
65858;SHT31;53776;47.242;18.674;2022-09-09T08:55:23;25.48;57.80
65858;SHT31;53776;47.242;18.674;2022-09-09T08:57:51;25.50;57.82
65858;SHT31;53776;47.242;18.674;2022-09-09T09:00:18;25.49;57.73
65858;SHT31;53776;47.242;18.674;2022-09-09T09:03:13;25.46;57.54
65858;SHT31;53776;47.242;18.674;2022-09-09T09:05:48;25.48;57.61
65858;SHT31;53776;47.242;18.674;2022-09-09T09:11:40;25.50;57.45
65858;SHT31;53776;47.242;18.674;2022-09-09T09:16:57;25.58;57.27
65858;SHT31;53776;47.242;18.674;2022-09-09T09:19:24;25.56;57.22
65858;SHT31;53776;47.242;18.674;2022-09-09T09:24:19;25.59;57.12
65858;SHT31;53776;47.242;18.674;2022-09-09T09:26:45;25.56;57.11
65858;SHT31;53776;47.242;18.674;2022-09-09T09:29:13;25.61;57.04
65858;SHT31;53776;47.242;18.674;2022-09-09T09:31:43;25.62;57.04
65858;SHT31;53776;47.242;18.674;2022-09-09T09:34:10;25.62;56.91
65858;SHT31;53776;47.242;18.674;2022-09-09T09:36:53;25.62;56.77
65858;SHT31;53776;47.242;18.674;2022-09-09T09:39:36;25.65;56.53
65858;SHT31;53776;47.242;18.674;2022-09-09T09:42:16;25.66;56.57
65858;SHT31;53776;47.242;18.674;2022-09-09T09:44:42;25.69;56.64
65858;SHT31;53776;47.242;18.674;2022-09-09T09:47:13;25.67;56.56
65858;SHT31;53776;47.242;18.674;2022-09-09T09:49:50;25.70;56.52
65858;SHT31;53776;47.242;18.674;2022-09-09T09:52:18;25.70;56.43
65858;SHT31;53776;47.242;18.674;2022-09-09T09:54:46;25.75;56.30
65858;SHT31;53776;47.242;18.674;2022-09-09T09:57:13;25.77;56.12
65858;SHT31;53776;47.242;18.674;2022-09-09T09:59:40;25.79;56.10
65858;SHT31;53776;47.242;18.674;2022-09-09T10:02:20;25.79;56.09
65858;SHT31;53776;47.242;18.674;2022-09-09T10:05:00;25.82;56.05
65858;SHT31;53776;47.242;18.674;2022-09-09T10:07:26;25.83;56.10
65858;SHT31;53776;47.242;18.674;2022-09-09T10:09:56;25.84;56.00
65858;SHT31;53776;47.242;18.674;2022-09-09T10:28:36;26.03;55.48
65858;SHT31;53776;47.242;18.674;2022-09-09T10:31:34;26.01;55.42
65858;SHT31;53776;47.242;18.674;2022-09-09T10:42:45;26.18;54.93
65858;SHT31;53776;47.242;18.674;2022-09-09T10:45:21;26.17;54.93
65858;SHT31;53776;47.242;18.674;2022-09-09T10:48:19;26.18;54.86
65858;SHT31;53776;47.242;18.674;2022-09-09T10:50:54;26.23;54.59
65858;SHT31;53776;47.242;18.674;2022-09-09T10:53:43;26.28;54.45
65858;SHT31;53776;47.242;18.674;2022-09-09T10:56:12;26.34;54.21
65858;SHT31;53776;47.242;18.674;2022-09-09T11:01:26;26.35;54.16
65858;SHT31;53776;47.242;18.674;2022-09-09T11:04:10;26.37;54.20
65858;SHT31;53776;47.242;18.674;2022-09-09T11:06:40;26.38;54.21
65858;SHT31;53776;47.242;18.674;2022-09-09T11:09:15;26.42;54.09
65858;SHT31;53776;47.242;18.674;2022-09-09T11:11:48;26.47;53.88
65858;SHT31;53776;47.242;18.674;2022-09-09T11:14:23;26.49;53.89
65858;SHT31;53776;47.242;18.674;2022-09-09T11:17:00;26.53;53.84
65858;SHT31;53776;47.242;18.674;2022-09-09T11:19:41;26.52;53.71
65858;SHT31;53776;47.242;18.674;2022-09-09T11:22:26;26.53;53.66
65858;SHT31;53776;47.242;18.674;2022-09-09T11:25:18;26.56;53.60
65858;SHT31;53776;47.242;18.674;2022-09-09T11:41:45;26.82;53.51
65858;SHT31;53776;47.242;18.674;2022-09-09T11:44:12;26.73;53.67
65858;SHT31;53776;47.242;18.674;2022-09-09T11:46:41;26.73;53.80
65858;SHT31;53776;47.242;18.674;2022-09-09T11:49:26;26.69;53.93
65858;SHT31;53776;47.242;18.674;2022-09-09T11:51:53;26.73;53.82
65858;SHT31;53776;47.242;18.674;2022-09-09T11:54:31;26.76;53.43
65858;SHT31;53776;47.242;18.674;2022-09-09T11:56:57;26.78;53.31
65858;SHT31;53776;47.242;18.674;2022-09-09T11:59:27;26.78;53.44
65858;SHT31;53776;47.242;18.674;2022-09-09T12:02:14;26.79;53.53
65858;SHT31;53776;47.242;18.674;2022-09-09T12:05:09;26.81;53.53
65858;SHT31;53776;47.242;18.674;2022-09-09T12:07:50;26.79;53.34
65858;SHT31;53776;47.242;18.674;2022-09-09T12:12:53;26.83;53.51
65858;SHT31;53776;47.242;18.674;2022-09-09T12:15:22;26.83;53.43
65858;SHT31;53776;47.242;18.674;2022-09-09T12:17:50;26.85;53.10
65858;SHT31;53776;47.242;18.674;2022-09-09T12:20:23;26.93;53.03
65858;SHT31;53776;47.242;18.674;2022-09-09T12:33:37;26.99;53.17
65858;SHT31;53776;47.242;18.674;2022-09-09T12:36:11;27.09;52.65
65858;SHT31;53776;47.242;18.674;2022-09-09T12:38:40;27.16;52.78
65858;SHT31;53776;47.242;18.674;2022-09-09T12:41:05;27.22;52.67
65858;SHT31;53776;47.242;18.674;2022-09-09T12:43:31;27.27;52.60
65858;SHT31;53776;47.242;18.674;2022-09-09T12:46:07;27.33;52.35
65858;SHT31;53776;47.242;18.674;2022-09-09T12:48:36;27.37;52.32
65858;SHT31;53776;47.242;18.674;2022-09-09T12:51:03;27.38;52.33
65858;SHT31;53776;47.242;18.674;2022-09-09T12:53:36;27.44;52.16
65858;SHT31;53776;47.242;18.674;2022-09-09T12:58:28;27.53;51.90
65858;SHT31;53776;47.242;18.674;2022-09-09T13:00:59;27.51;51.90
65858;SHT31;53776;47.242;18.674;2022-09-09T13:03:25;27.50;52.36
65858;SHT31;53776;47.242;18.674;2022-09-09T13:05:53;27.46;52.56
65858;SHT31;53776;47.242;18.674;2022-09-09T13:08:19;27.50;52.18
65858;SHT31;53776;47.242;18.674;2022-09-09T13:10:51;27.47;52.74
65858;SHT31;53776;47.242;18.674;2022-09-09T13:13:42;27.41;52.94
65858;SHT31;53776;47.242;18.674;2022-09-09T13:16:39;27.40;52.86
65858;SHT31;53776;47.242;18.674;2022-09-09T13:19:10;27.37;52.79
65858;SHT31;53776;47.242;18.674;2022-09-09T13:21:39;27.37;52.76
65858;SHT31;53776;47.242;18.674;2022-09-09T13:24:30;27.44;52.63
65858;SHT31;53776;47.242;18.674;2022-09-09T13:27:19;27.57;52.09
65858;SHT31;53776;47.242;18.674;2022-09-09T13:29:53;27.62;52.09
65858;SHT31;53776;47.242;18.674;2022-09-09T13:32:23;27.67;52.06
65858;SHT31;53776;47.242;18.674;2022-09-09T13:34:55;27.67;52.05
65858;SHT31;53776;47.242;18.674;2022-09-09T13:37:36;27.72;51.93
65858;SHT31;53776;47.242;18.674;2022-09-09T13:40:12;27.78;51.76
65858;SHT31;53776;47.242;18.674;2022-09-09T13:42:42;27.84;51.81
65858;SHT31;53776;47.242;18.674;2022-09-09T13:45:28;27.87;51.54
65858;SHT31;53776;47.242;18.674;2022-09-09T13:47:54;27.77;52.20
65858;SHT31;53776;47.242;18.674;2022-09-09T13:50:30;27.68;52.11
65858;SHT31;53776;47.242;18.674;2022-09-09T13:52:57;27.68;52.42
65858;SHT31;53776;47.242;18.674;2022-09-09T13:55:29;27.68;52.15
65858;SHT31;53776;47.242;18.674;2022-09-09T13:57:59;27.69;52.24
65858;SHT31;53776;47.242;18.674;2022-09-09T14:00:26;27.68;52.24
65858;SHT31;53776;47.242;18.674;2022-09-09T14:02:53;27.71;52.34
65858;SHT31;53776;47.242;18.674;2022-09-09T14:05:20;27.69;52.28
65858;SHT31;53776;47.242;18.674;2022-09-09T14:07:47;27.81;51.96
65858;SHT31;53776;47.242;18.674;2022-09-09T14:10:13;27.89;51.80
65858;SHT31;53776;47.242;18.674;2022-09-09T14:12:39;27.99;51.76
65858;SHT31;53776;47.242;18.674;2022-09-09T14:15:06;27.96;51.73
65858;SHT31;53776;47.242;18.674;2022-09-09T14:17:32;27.94;52.02
65858;SHT31;53776;47.242;18.674;2022-09-09T14:19:58;27.87;51.61
65858;SHT31;53776;47.242;18.674;2022-09-09T14:22:23;27.88;52.08
65858;SHT31;53776;47.242;18.674;2022-09-09T14:24:49;27.91;51.88
65858;SHT31;53776;47.242;18.674;2022-09-09T14:27:16;27.88;52.22
65858;SHT31;53776;47.242;18.674;2022-09-09T14:29:42;27.81;52.02
65858;SHT31;53776;47.242;18.674;2022-09-09T14:32:09;27.78;51.89
65858;SHT31;53776;47.242;18.674;2022-09-09T14:34:34;27.72;52.14
65858;SHT31;53776;47.242;18.674;2022-09-09T14:37:00;27.74;51.93
65858;SHT31;53776;47.242;18.674;2022-09-09T14:39:25;27.71;52.64
65858;SHT31;53776;47.242;18.674;2022-09-09T14:41:51;27.69;52.79
65858;SHT31;53776;47.242;18.674;2022-09-09T14:44:16;27.71;52.50
65858;SHT31;53776;47.242;18.674;2022-09-09T14:46:42;27.57;52.41
65858;SHT31;53776;47.242;18.674;2022-09-09T14:49:08;27.50;51.33
65858;SHT31;53776;47.242;18.674;2022-09-09T14:51:35;27.61;51.75
65858;SHT31;53776;47.242;18.674;2022-09-09T14:54:01;27.69;50.88
65858;SHT31;53776;47.242;18.674;2022-09-09T14:56:29;27.71;49.95
65858;SHT31;53776;47.242;18.674;2022-09-09T14:58:56;27.68;49.28
65858;SHT31;53776;47.242;18.674;2022-09-09T15:01:23;27.68;48.51
65858;SHT31;53776;47.242;18.674;2022-09-09T15:03:54;27.68;48.44
65858;SHT31;53776;47.242;18.674;2022-09-09T15:06:21;27.57;45.78
65858;SHT31;53776;47.242;18.674;2022-09-09T15:08:46;27.40;46.96
65858;SHT31;53776;47.242;18.674;2022-09-09T15:11:13;27.30;46.79
65858;SHT31;53776;47.242;18.674;2022-09-09T15:13:40;27.22;46.71
65858;SHT31;53776;47.242;18.674;2022-09-09T15:16:09;27.16;46.97
65858;SHT31;53776;47.242;18.674;2022-09-09T15:18:35;27.04;47.55
65858;SHT31;53776;47.242;18.674;2022-09-09T15:21:02;27.04;47.79
65858;SHT31;53776;47.242;18.674;2022-09-09T15:23:32;26.93;48.51
65858;SHT31;53776;47.242;18.674;2022-09-09T15:25:57;26.89;48.87
65858;SHT31;53776;47.242;18.674;2022-09-09T15:28:23;26.93;50.94
65858;SHT31;53776;47.242;18.674;2022-09-09T15:36:38;27.04;47.61
65858;SHT31;53776;47.242;18.674;2022-09-09T15:39:06;26.72;48.86
65858;SHT31;53776;47.242;18.674;2022-09-09T15:41:32;26.40;48.37
65858;SHT31;53776;47.242;18.674;2022-09-09T15:43:57;26.11;49.40
65858;SHT31;53776;47.242;18.674;2022-09-09T15:46:29;25.96;50.98
65858;SHT31;53776;47.242;18.674;2022-09-09T15:48:58;25.89;52.06
65858;SHT31;53776;47.242;18.674;2022-09-09T15:51:25;25.77;51.23
65858;SHT31;53776;47.242;18.674;2022-09-09T15:53:55;25.69;51.11
65858;SHT31;53776;47.242;18.674;2022-09-09T15:56:21;25.65;52.52
65858;SHT31;53776;47.242;18.674;2022-09-09T15:58:47;25.56;52.89
65858;SHT31;53776;47.242;18.674;2022-09-09T16:01:12;25.42;52.76
65858;SHT31;53776;47.242;18.674;2022-09-09T16:03:40;25.38;52.94
65858;SHT31;53776;47.242;18.674;2022-09-09T16:06:08;25.21;54.52
65858;SHT31;53776;47.242;18.674;2022-09-09T16:08:36;25.10;54.42
65858;SHT31;53776;47.242;18.674;2022-09-09T16:11:14;25.06;54.46
65858;SHT31;53776;47.242;18.674;2022-09-09T16:13:42;25.11;54.36
65858;SHT31;53776;47.242;18.674;2022-09-09T16:16:12;25.01;54.66
65858;SHT31;53776;47.242;18.674;2022-09-09T16:18:40;24.84;55.70
65858;SHT31;53776;47.242;18.674;2022-09-09T16:21:07;24.69;56.27
65858;SHT31;53776;47.242;18.674;2022-09-09T16:23:33;24.52;57.31
65858;SHT31;53776;47.242;18.674;2022-09-09T16:25:59;24.30;57.72
65858;SHT31;53776;47.242;18.674;2022-09-09T16:28:24;24.22;59.04
65858;SHT31;53776;47.242;18.674;2022-09-09T16:30:50;24.11;59.23
65858;SHT31;53776;47.242;18.674;2022-09-09T16:33:16;24.09;60.35
65858;SHT31;53776;47.242;18.674;2022-09-09T16:35:42;23.97;59.48
65858;SHT31;53776;47.242;18.674;2022-09-09T16:38:07;23.82;60.20
65858;SHT31;53776;47.242;18.674;2022-09-09T16:40:39;23.74;59.93
65858;SHT31;53776;47.242;18.674;2022-09-09T16:43:07;23.65;60.10
65858;SHT31;53776;47.242;18.674;2022-09-09T16:45:32;23.63;60.15
65858;SHT31;53776;47.242;18.674;2022-09-09T16:48:01;23.51;60.49
65858;SHT31;53776;47.242;18.674;2022-09-09T16:50:27;23.42;60.95
65858;SHT31;53776;47.242;18.674;2022-09-09T16:52:52;23.39;60.86
65858;SHT31;53776;47.242;18.674;2022-09-09T16:55:18;23.34;60.73
65858;SHT31;53776;47.242;18.674;2022-09-09T16:57:46;23.37;60.98
65858;SHT31;53776;47.242;18.674;2022-09-09T17:00:14;23.34;62.24
65858;SHT31;53776;47.242;18.674;2022-09-09T17:02:40;23.30;62.67
65858;SHT31;53776;47.242;18.674;2022-09-09T17:05:05;23.28;62.82
65858;SHT31;53776;47.242;18.674;2022-09-09T17:07:31;23.22;64.17
65858;SHT31;53776;47.242;18.674;2022-09-09T17:09:57;23.07;64.51
65858;SHT31;53776;47.242;18.674;2022-09-09T17:12:23;22.92;64.00
65858;SHT31;53776;47.242;18.674;2022-09-09T17:14:48;22.82;64.12
65858;SHT31;53776;47.242;18.674;2022-09-09T17:17:14;22.78;64.44
65858;SHT31;53776;47.242;18.674;2022-09-09T17:19:40;22.72;64.45
65858;SHT31;53776;47.242;18.674;2022-09-09T17:22:05;22.69;65.23
65858;SHT31;53776;47.242;18.674;2022-09-09T17:24:31;22.68;65.46
65858;SHT31;53776;47.242;18.674;2022-09-09T17:26:58;22.62;64.51
65858;SHT31;53776;47.242;18.674;2022-09-09T17:29:23;22.64;63.73
65858;SHT31;53776;47.242;18.674;2022-09-09T17:31:49;22.68;62.80
65858;SHT31;53776;47.242;18.674;2022-09-09T17:34:15;22.64;64.01
65858;SHT31;53776;47.242;18.674;2022-09-09T17:36:41;22.61;64.39
65858;SHT31;53776;47.242;18.674;2022-09-09T17:39:06;22.61;67.22
65858;SHT31;53776;47.242;18.674;2022-09-09T17:41:35;22.57;67.27
65858;SHT31;53776;47.242;18.674;2022-09-09T17:44:01;22.52;64.82
65858;SHT31;53776;47.242;18.674;2022-09-09T17:46:30;22.40;64.62
65858;SHT31;53776;47.242;18.674;2022-09-09T17:48:59;22.31;66.25
65858;SHT31;53776;47.242;18.674;2022-09-09T17:51:26;22.33;66.08